createdAt,value
2019-02-25T00:00:54.460Z,10.70
2019-02-25T00:03:23.935Z,9.17
2019-02-25T00:05:53.306Z,9.30
2019-02-25T00:08:22.705Z,8.90
2019-02-25T00:10:54.398Z,8.40
2019-02-25T00:13:24.269Z,7.47
2019-02-25T00:15:53.627Z,8.63
2019-02-25T00:18:23.252Z,7.90
2019-02-25T00:20:53.122Z,8.13
2019-02-25T00:23:23.109Z,9.23
2019-02-25T00:25:52.447Z,8.83
2019-02-25T00:28:21.780Z,9.20
2019-02-25T00:30:51.152Z,8.60
2019-02-25T00:33:20.910Z,9.67
2019-02-25T00:35:50.324Z,9.67
2019-02-25T00:38:19.728Z,8.73
2019-02-25T00:40:49.115Z,8.13
2019-02-25T00:43:18.499Z,8.37
2019-02-25T00:45:47.951Z,8.97
2019-02-25T00:48:17.333Z,8.67
2019-02-25T00:50:46.715Z,9.33
2019-02-25T00:53:16.112Z,9.23
2019-02-25T00:55:45.486Z,9.87
2019-02-25T00:58:14.888Z,9.67
2019-02-25T01:00:44.280Z,10.13
2019-02-25T01:03:13.647Z,9.33
2019-02-25T01:05:43.048Z,10.37
2019-02-25T01:08:12.463Z,9.63
2019-02-25T01:10:41.855Z,9.97
2019-02-25T01:13:11.231Z,10.50
2019-02-25T01:15:40.604Z,10.47
2019-02-25T01:18:10.035Z,10.07
2019-02-25T01:20:39.447Z,10.37
2019-02-25T01:23:08.854Z,9.73
2019-02-25T01:25:38.256Z,12.33
2019-02-25T01:28:07.642Z,10.70
2019-02-25T01:30:37.058Z,10.43
2019-02-25T01:33:06.444Z,10.20
2019-02-25T01:35:35.968Z,11.73
2019-02-25T01:38:05.371Z,9.90
2019-02-25T01:40:34.789Z,10.23
2019-02-25T01:43:04.180Z,9.90
2019-02-25T01:45:33.539Z,10.00
2019-02-25T01:48:02.964Z,10.53
2019-02-25T01:50:32.340Z,10.40
2019-02-25T01:53:01.710Z,9.83
2019-02-25T01:55:31.107Z,9.00
2019-02-25T01:58:00.487Z,9.57
2019-02-25T02:00:30.223Z,8.40
2019-02-25T02:02:59.603Z,8.43
2019-02-25T02:05:28.992Z,9.50
2019-02-25T02:07:58.388Z,8.70
2019-02-25T02:10:27.756Z,8.83
2019-02-25T02:12:57.155Z,8.80
2019-02-25T02:15:26.532Z,8.90
2019-02-25T02:17:55.924Z,10.63
2019-02-25T02:20:25.311Z,9.83
2019-02-25T02:22:54.687Z,9.20
2019-02-25T02:25:24.083Z,9.33
2019-02-25T02:27:53.723Z,9.30
2019-02-25T02:30:23.128Z,9.93
2019-02-25T02:32:52.519Z,9.30
2019-02-25T02:35:21.901Z,8.33
2019-02-25T02:37:51.357Z,8.70
2019-02-25T02:40:20.752Z,8.03
2019-02-25T02:42:52.320Z,9.20
2019-02-25T02:45:42.533Z,7.97
2019-02-25T02:48:26.958Z,8.37
2019-02-25T02:50:56.339Z,7.33
2019-02-25T02:53:25.766Z,8.23
2019-02-25T02:55:55.170Z,12.83
2019-02-25T02:58:24.539Z,9.40
2019-02-25T03:00:53.946Z,8.50
2019-02-25T03:03:23.342Z,7.63
2019-02-25T03:05:52.733Z,7.90
2019-02-25T03:08:22.137Z,7.30
2019-02-25T03:10:51.505Z,9.47
2019-02-25T03:13:21.349Z,7.87
2019-02-25T03:15:50.739Z,7.33
2019-02-25T03:18:20.151Z,8.60
2019-02-25T03:20:49.537Z,7.90
2019-02-25T03:23:19.015Z,9.53
2019-02-25T03:25:48.408Z,8.60
2019-02-25T03:28:18.285Z,8.40
2019-02-25T03:30:47.716Z,8.37
2019-02-25T03:33:17.076Z,8.63
2019-02-25T03:35:46.446Z,8.67
2019-02-25T03:38:15.944Z,7.90
2019-02-25T03:40:45.416Z,8.60
2019-02-25T03:43:14.916Z,9.57
2019-02-25T03:45:44.351Z,8.70
2019-02-25T03:48:13.903Z,9.23
2019-02-25T03:50:43.374Z,8.30
2019-02-25T03:53:12.944Z,8.60
2019-02-25T03:55:42.527Z,9.17
2019-02-25T03:58:11.987Z,8.13
2019-02-25T04:00:41.368Z,8.40
2019-02-25T04:03:11.189Z,7.80
2019-02-25T04:05:40.711Z,7.47
2019-02-25T04:08:10.229Z,8.30
2019-02-25T04:10:39.575Z,8.47
2019-02-25T04:13:08.947Z,8.27
2019-02-25T04:15:41.339Z,8.80
2019-02-25T04:18:10.703Z,8.17
2019-02-25T04:20:40.103Z,7.77
2019-02-25T04:23:09.755Z,8.63
2019-02-25T04:25:39.158Z,8.93
2019-02-25T04:28:08.529Z,8.00
2019-02-25T04:30:37.916Z,9.03
2019-02-25T04:33:07.320Z,8.80
2019-02-25T04:35:36.695Z,9.17
2019-02-25T04:38:06.123Z,8.67
2019-02-25T04:40:35.425Z,8.87
2019-02-25T04:43:04.798Z,9.10
2019-02-25T04:45:34.196Z,8.67
2019-02-25T04:48:03.571Z,8.87
2019-02-25T04:50:32.963Z,7.77
2019-02-25T04:53:02.342Z,8.80
2019-02-25T04:55:31.742Z,8.57
2019-02-25T04:58:01.127Z,8.40
2019-02-25T05:00:30.514Z,7.40
2019-02-25T05:02:59.964Z,8.67
2019-02-25T05:05:29.275Z,8.90
2019-02-25T05:07:58.683Z,8.70
2019-02-25T05:10:28.068Z,8.43
2019-02-25T05:13:01.498Z,9.37
2019-02-25T05:15:31.207Z,10.07
2019-02-25T05:18:00.595Z,8.37
2019-02-25T05:20:29.963Z,8.50
2019-02-25T05:22:59.266Z,8.33
2019-02-25T05:25:28.666Z,8.83
2019-02-25T05:27:58.044Z,9.03
2019-02-25T05:30:27.433Z,9.97
2019-02-25T05:32:56.843Z,9.63
2019-02-25T05:35:26.213Z,10.27
2019-02-25T05:37:55.606Z,9.50
2019-02-25T05:40:25.032Z,9.77
2019-02-25T05:42:54.423Z,10.23
2019-02-25T05:45:23.836Z,9.57
2019-02-25T05:47:53.215Z,12.43
2019-02-25T05:50:23.004Z,10.23
2019-02-25T05:52:52.392Z,12.47
2019-02-25T05:55:21.774Z,10.17
2019-02-25T05:57:51.204Z,10.83
2019-02-25T06:00:22.822Z,12.03
2019-02-25T06:02:52.194Z,11.77
2019-02-25T06:05:22.826Z,10.20
2019-02-25T06:07:52.210Z,10.67
2019-02-25T06:10:21.654Z,10.20
2019-02-25T06:12:51.007Z,10.90
2019-02-25T06:15:20.718Z,9.53
2019-02-25T06:17:50.132Z,8.93
2019-02-25T06:20:19.514Z,9.63
2019-02-25T06:22:48.927Z,9.27
2019-02-25T06:25:18.430Z,10.23
2019-02-25T06:27:47.811Z,9.67
2019-02-25T06:30:17.803Z,9.60
2019-02-25T06:32:47.136Z,10.03
2019-02-25T06:35:16.659Z,8.53
2019-02-25T06:37:46.025Z,10.30
2019-02-25T06:40:16.200Z,11.30
2019-02-25T06:42:45.696Z,9.93
2019-02-25T06:45:16.560Z,10.13
2019-02-25T06:47:45.981Z,10.43
2019-02-25T06:50:15.450Z,9.97
2019-02-25T06:52:44.845Z,10.17
2019-02-25T06:55:15.027Z,12.43
2019-02-25T06:57:44.442Z,9.77
2019-02-25T07:00:15.807Z,9.60
2019-02-25T07:02:45.178Z,11.63
2019-02-25T07:05:36.666Z,11.40
2019-02-25T07:08:23.696Z,15.70
2019-02-25T07:11:04.423Z,13.30
2019-02-25T07:13:51.559Z,16.53
2019-02-25T07:16:38.231Z,12.60
2019-02-25T07:19:24.983Z,12.23
2019-02-25T07:22:19.456Z,10.70
2019-02-25T07:25:11.804Z,11.07
2019-02-25T07:27:58.530Z,14.43
2019-02-25T07:30:34.908Z,20.97
2019-02-25T07:33:16.244Z,10.93
2019-02-25T07:36:02.134Z,9.87
2019-02-25T07:38:59.716Z,9.20
2019-02-25T07:41:38.236Z,10.00
2019-02-25T07:44:21.323Z,10.27
2019-02-25T07:47:05.159Z,9.37
2019-02-25T07:49:56.265Z,9.43
2019-02-25T07:52:41.091Z,11.20
2019-02-25T07:55:24.987Z,10.43
2019-02-25T07:58:03.815Z,10.90
2019-02-25T08:00:41.186Z,16.20
2019-02-25T08:03:32.568Z,12.20
2019-02-25T08:06:12.549Z,10.57
2019-02-25T08:09:09.787Z,10.87
2019-02-25T08:12:07.147Z,9.77
2019-02-25T08:14:51.655Z,9.37
2019-02-25T08:17:54.876Z,10.90
2019-02-25T08:20:39.713Z,12.03
2019-02-25T08:23:40.211Z,10.33
2019-02-25T08:26:34.639Z,12.50
2019-02-25T08:29:37.887Z,11.10
2019-02-25T08:32:29.081Z,34.07
2019-02-25T08:35:12.781Z,16.70
2019-02-25T08:38:24.751Z,11.83
2019-02-25T08:41:32.144Z,10.93
2019-02-25T08:44:26.587Z,13.35
2019-02-25T08:47:04.695Z,10.37
2019-02-25T08:49:41.875Z,10.27
2019-02-25T08:52:11.255Z,10.57
2019-02-25T08:54:40.632Z,10.50
2019-02-25T08:57:10.034Z,9.97
2019-02-25T08:59:39.451Z,10.43
2019-02-25T09:02:08.855Z,9.93
2019-02-25T09:04:38.249Z,10.80
2019-02-25T09:07:07.984Z,10.10
2019-02-25T09:09:37.357Z,10.37
2019-02-25T09:12:06.843Z,10.37
2019-02-25T09:14:36.260Z,10.00
2019-02-25T09:17:05.632Z,11.10
2019-02-25T09:19:35.031Z,10.30
2019-02-25T09:22:04.396Z,9.13
2019-02-25T09:24:33.799Z,9.83
2019-02-25T09:27:03.204Z,9.97
2019-02-25T09:29:32.647Z,8.47
2019-02-25T09:32:02.030Z,7.33
2019-02-25T09:34:31.407Z,8.33
2019-02-25T09:37:00.792Z,7.60
2019-02-25T09:39:30.182Z,8.73
2019-02-25T09:41:59.622Z,8.73
2019-02-25T09:44:28.988Z,7.80
2019-02-25T09:46:58.428Z,7.87
2019-02-25T09:49:27.771Z,8.07
2019-02-25T09:51:57.272Z,7.27
2019-02-25T09:54:26.651Z,7.27
2019-02-25T09:56:56.033Z,6.07
2019-02-25T09:59:25.448Z,7.03
2019-02-25T10:01:54.815Z,6.40
2019-02-25T10:04:24.221Z,5.53
2019-02-25T10:07:01.997Z,6.13
2019-02-25T10:09:29.888Z,6.10
2019-02-25T10:11:55.671Z,6.40
2019-02-25T10:14:25.176Z,5.37
2019-02-25T10:16:54.547Z,6.07
2019-02-25T10:19:23.931Z,6.00
2019-02-25T10:21:53.391Z,5.67
2019-02-25T10:24:22.692Z,5.83
2019-02-25T10:26:52.099Z,7.67
2019-02-25T10:29:21.528Z,6.90
2019-02-25T10:31:50.908Z,6.13
2019-02-25T10:34:20.279Z,7.30
2019-02-25T10:36:50.357Z,6.07
2019-02-25T10:39:20.707Z,7.10
2019-02-25T10:41:51.221Z,5.43
2019-02-25T10:44:21.137Z,6.17
2019-02-25T10:46:50.531Z,6.07
2019-02-25T10:49:19.919Z,5.73
2019-02-25T10:51:49.305Z,6.27
2019-02-25T10:54:19.581Z,6.20
2019-02-25T10:56:54.102Z,10.57
2019-02-25T10:59:24.036Z,7.47
2019-02-25T11:01:53.407Z,6.30
2019-02-25T11:04:23.813Z,5.83
2019-02-25T11:06:53.844Z,6.10
2019-02-25T11:09:42.035Z,5.83
2019-02-25T11:12:11.555Z,6.10
2019-02-25T11:14:42.901Z,7.03
2019-02-25T11:17:13.773Z,6.57
2019-02-25T11:19:43.039Z,7.23
2019-02-25T11:22:14.113Z,7.13
2019-02-25T11:24:43.436Z,6.63
2019-02-25T11:27:12.863Z,8.63
2019-02-25T11:29:44.027Z,6.23
2019-02-25T11:32:13.307Z,7.57
2019-02-25T11:34:42.669Z,6.33
2019-02-25T11:37:12.084Z,6.37
2019-02-25T11:39:41.475Z,6.60
2019-02-25T11:42:12.869Z,5.92
2019-02-25T11:44:42.019Z,6.20
2019-02-25T11:47:11.400Z,6.27
2019-02-25T11:49:40.811Z,5.87
2019-02-25T11:52:10.198Z,6.63
2019-02-25T11:54:39.631Z,7.23
2019-02-25T11:57:09.028Z,7.20
2019-02-25T11:59:38.407Z,5.70
2019-02-25T12:02:07.815Z,6.13
2019-02-25T12:04:37.187Z,6.80
2019-02-25T12:07:06.836Z,6.47
2019-02-25T12:09:36.211Z,7.05
2019-02-25T12:12:05.632Z,6.45
2019-02-25T12:14:35.009Z,6.90
2019-02-25T12:17:04.396Z,6.83
2019-02-25T12:19:33.792Z,8.38
2019-02-25T12:22:03.174Z,6.13
2019-02-25T12:24:32.579Z,6.10
2019-02-25T12:27:01.960Z,7.77
2019-02-25T12:29:31.424Z,6.20
2019-02-25T12:32:00.769Z,5.55
2019-02-25T12:34:30.138Z,6.40
2019-02-25T12:36:59.550Z,6.63
2019-02-25T12:39:28.913Z,5.58
2019-02-25T12:41:58.318Z,6.10
2019-02-25T12:44:27.806Z,5.60
2019-02-25T12:46:57.364Z,5.83
2019-02-25T12:49:26.743Z,6.45
2019-02-25T12:51:56.118Z,6.25
2019-02-25T12:54:25.544Z,5.35
2019-02-25T12:56:54.913Z,5.42
2019-02-25T12:59:24.322Z,5.22
2019-02-25T13:01:53.708Z,5.28
2019-02-25T13:04:23.136Z,5.30
2019-02-25T13:06:52.521Z,6.03
2019-02-25T13:09:21.903Z,5.65
2019-02-25T13:11:51.321Z,4.67
2019-02-25T13:14:20.721Z,5.20
2019-02-25T13:16:50.147Z,5.53
2019-02-25T13:19:19.525Z,5.47
2019-02-25T13:21:48.959Z,5.63
2019-02-25T13:24:18.344Z,5.73
2019-02-25T13:26:47.737Z,5.03
2019-02-25T13:29:17.135Z,4.77
2019-02-25T13:31:46.523Z,7.10
2019-02-25T13:34:15.967Z,6.07
2019-02-25T13:36:45.332Z,4.85
2019-02-25T13:39:14.740Z,4.65
2019-02-25T13:41:44.220Z,5.80
2019-02-25T13:44:13.615Z,4.78
2019-02-25T13:46:43.082Z,4.20
2019-02-25T13:49:12.469Z,4.65
2019-02-25T13:51:41.888Z,4.55
2019-02-25T13:54:11.264Z,4.58
2019-02-25T13:56:40.688Z,3.35
2019-02-25T13:59:10.267Z,3.80
2019-02-25T14:01:39.672Z,4.17
2019-02-25T14:04:09.088Z,4.37
2019-02-25T14:06:38.464Z,4.07
2019-02-25T14:09:09.579Z,3.50
2019-02-25T14:11:38.976Z,4.12
2019-02-25T14:14:08.395Z,4.05
2019-02-25T14:16:37.776Z,8.00
2019-02-25T14:19:07.164Z,3.87
2019-02-25T14:21:36.654Z,4.70
2019-02-25T14:24:06.083Z,4.67
2019-02-25T14:26:37.440Z,3.83
2019-02-25T14:29:06.971Z,4.05
2019-02-25T14:31:36.480Z,3.92
2019-02-25T14:34:05.873Z,3.70
2019-02-25T14:36:35.435Z,3.80
2019-02-25T14:39:17.611Z,3.12
2019-02-25T14:41:47.027Z,4.07
2019-02-25T14:44:16.526Z,2.80
2019-02-25T14:46:45.955Z,7.65
2019-02-25T14:49:15.366Z,5.80
2019-02-25T14:51:45.082Z,21.60
2019-02-25T14:54:14.685Z,4.50
2019-02-25T14:56:45.036Z,5.20
2019-02-25T14:59:17.291Z,5.00
2019-02-25T15:01:46.146Z,4.90
2019-02-25T15:04:15.887Z,3.63
2019-02-25T15:06:45.255Z,5.00
2019-02-25T15:09:16.244Z,4.12
2019-02-25T15:11:45.740Z,5.63
2019-02-25T15:14:16.750Z,6.57
2019-02-25T15:16:46.167Z,7.73
2019-02-25T15:19:15.564Z,5.97
2019-02-25T15:21:47.382Z,5.97
2019-02-25T15:24:16.190Z,3.77
2019-02-25T15:26:45.574Z,2.90
2019-02-25T15:29:14.978Z,3.83
2019-02-25T15:31:46.198Z,3.02
2019-02-25T15:34:17.206Z,3.52
2019-02-25T15:36:47.220Z,3.77
2019-02-25T15:39:16.764Z,4.50
2019-02-25T15:41:48.190Z,3.77
2019-02-25T15:44:17.191Z,3.43
2019-02-25T15:46:46.641Z,3.50
2019-02-25T15:49:17.354Z,3.87
2019-02-25T15:51:47.059Z,3.67
2019-02-25T15:54:16.432Z,3.90
2019-02-25T15:56:45.823Z,3.70
2019-02-25T15:59:15.203Z,4.50
2019-02-25T16:01:45.135Z,4.05
2019-02-25T16:04:14.516Z,4.70
2019-02-25T16:06:43.897Z,4.93
2019-02-25T16:09:17.088Z,4.42
2019-02-25T16:11:46.003Z,4.03
2019-02-25T16:14:16.525Z,4.15
2019-02-25T16:16:46.015Z,4.20
2019-02-25T16:19:16.995Z,4.03
2019-02-25T16:21:46.499Z,4.83
2019-02-25T16:24:16.860Z,4.28
2019-02-25T16:26:48.685Z,4.10
2019-02-25T16:29:18.001Z,3.87
2019-02-25T16:31:48.536Z,3.42
2019-02-25T16:34:20.542Z,4.07
2019-02-25T16:36:51.998Z,3.33
2019-02-25T16:39:20.759Z,3.43
2019-02-25T16:41:52.427Z,3.30
2019-02-25T16:44:21.878Z,4.00
2019-02-25T16:46:51.329Z,3.65
2019-02-25T16:49:20.740Z,3.92
2019-02-25T16:51:51.037Z,3.80
2019-02-25T16:54:22.855Z,3.53
2019-02-25T16:56:52.563Z,3.83
2019-02-25T16:59:23.027Z,4.05
2019-02-25T17:01:55.821Z,10.17
2019-02-25T17:04:25.512Z,11.13
2019-02-25T17:06:55.699Z,9.33
2019-02-25T17:09:28.868Z,7.30
2019-02-25T17:12:00.113Z,7.30
2019-02-25T17:14:29.796Z,8.35
2019-02-25T17:16:59.188Z,7.90
2019-02-25T17:19:28.589Z,8.63
2019-02-25T17:21:58.003Z,11.20
2019-02-25T17:24:28.071Z,11.23
2019-02-25T17:27:00.070Z,11.88
2019-02-25T17:29:31.245Z,11.07
2019-02-25T17:32:01.916Z,11.53
2019-02-25T17:34:32.285Z,11.37
2019-02-25T17:37:02.418Z,10.90
2019-02-25T17:39:33.797Z,10.53
2019-02-25T17:42:03.529Z,9.53
2019-02-25T17:44:34.846Z,8.97
2019-02-25T17:47:06.624Z,9.73
2019-02-25T17:49:36.588Z,9.57
2019-02-25T17:52:07.148Z,9.95
2019-02-25T17:54:37.749Z,10.47
2019-02-25T17:57:09.287Z,10.77
2019-02-25T17:59:39.285Z,10.20
2019-02-25T18:02:10.078Z,11.13
2019-02-25T18:04:39.785Z,10.97
2019-02-25T18:07:09.188Z,12.07
2019-02-25T18:09:40.144Z,13.77
2019-02-25T18:12:10.759Z,28.90
2019-02-25T18:14:41.511Z,20.93
2019-02-25T18:17:14.843Z,33.70
2019-02-25T18:19:45.483Z,56.53
2019-02-25T18:22:13.744Z,18.20
2019-02-25T18:24:44.453Z,17.50
2019-02-25T18:27:15.695Z,29.53
2019-02-25T18:29:46.245Z,16.70
2019-02-25T18:32:16.409Z,16.80
2019-02-25T18:34:46.009Z,20.10
2019-02-25T18:37:17.570Z,17.40
2019-02-25T18:39:47.931Z,17.03
2019-02-25T18:42:18.500Z,20.53
2019-02-25T18:44:49.488Z,16.67
2019-02-25T18:47:22.863Z,22.57
2019-02-25T18:49:52.672Z,18.53
2019-02-25T18:52:23.535Z,18.67
2019-02-25T18:54:52.931Z,18.93
2019-02-25T18:57:25.173Z,19.67
2019-02-25T18:59:54.759Z,22.33
2019-02-25T19:02:24.729Z,21.17
2019-02-25T19:04:54.411Z,19.00
2019-02-25T19:07:25.627Z,20.50
2019-02-25T19:09:56.057Z,19.07
2019-02-25T19:12:25.988Z,23.33
2019-02-25T19:14:57.273Z,24.53
2019-02-25T19:17:27.267Z,24.90
2019-02-25T19:19:57.559Z,23.00
2019-02-25T19:22:28.047Z,28.60
2019-02-25T19:24:57.507Z,60.30
2019-02-25T19:27:27.794Z,30.20
2019-02-25T19:30:00.229Z,24.63
2019-02-25T19:32:29.344Z,26.13
2019-02-25T19:34:59.249Z,48.80
2019-02-25T19:37:32.954Z,33.93
2019-02-25T19:40:00.856Z,30.23
2019-02-25T19:42:31.261Z,33.77
2019-02-25T19:45:05.320Z,37.00
2019-02-25T19:47:33.066Z,29.00
2019-02-25T19:50:05.214Z,32.00
2019-02-25T19:52:34.882Z,30.87
2019-02-25T19:55:07.964Z,32.23
2019-02-25T19:57:36.838Z,31.37
2019-02-25T20:00:08.253Z,29.50
2019-02-25T20:02:37.771Z,26.63
2019-02-25T20:05:11.510Z,25.27
2019-02-25T20:07:38.628Z,25.47
2019-02-25T20:10:08.906Z,25.93
2019-02-25T20:12:38.273Z,25.97
2019-02-25T20:15:11.319Z,27.33
2019-02-25T20:17:41.343Z,26.07
2019-02-25T20:20:12.687Z,27.90
2019-02-25T20:22:42.151Z,29.73
2019-02-25T20:25:12.595Z,28.13
2019-02-25T20:27:42.948Z,28.47
2019-02-25T20:30:14.252Z,28.03
2019-02-25T20:32:43.643Z,28.60
2019-02-25T20:35:15.724Z,27.63
2019-02-25T20:37:46.398Z,30.73
2019-02-25T20:40:19.145Z,25.97
2019-02-25T20:42:50.959Z,30.43
2019-02-25T20:45:23.011Z,36.03
2019-02-25T20:47:52.330Z,28.97
2019-02-25T20:50:22.562Z,29.20
2019-02-25T20:52:51.947Z,26.00
2019-02-25T20:55:21.349Z,26.67
2019-02-25T20:57:50.723Z,26.20
2019-02-25T21:00:20.447Z,25.53
2019-02-25T21:02:49.944Z,25.30
2019-02-25T21:05:22.117Z,26.73
2019-02-25T21:07:52.677Z,27.43
2019-02-25T21:10:22.793Z,26.10
2019-02-25T21:12:54.568Z,25.60
2019-02-25T21:15:23.483Z,27.77
2019-02-25T21:17:55.053Z,29.43
2019-02-25T21:20:26.214Z,24.80
2019-02-25T21:22:57.675Z,27.27
2019-02-25T21:25:26.849Z,21.80
2019-02-25T21:27:59.253Z,22.70
2019-02-25T21:30:28.095Z,23.47
2019-02-25T21:32:58.960Z,22.67
2019-02-25T21:35:30.196Z,22.30
2019-02-25T21:37:59.411Z,21.27
2019-02-25T21:40:30.143Z,21.13
2019-02-25T21:42:59.844Z,23.07
2019-02-25T21:45:32.091Z,21.40
2019-02-25T21:48:01.865Z,22.13
2019-02-25T21:50:33.540Z,22.33
2019-02-25T21:53:04.917Z,25.70
2019-02-25T21:55:34.962Z,26.00
2019-02-25T21:58:05.010Z,20.33
2019-02-25T22:00:35.755Z,21.03
2019-02-25T22:03:08.257Z,24.37
2019-02-25T22:05:36.506Z,23.20
2019-02-25T22:08:06.535Z,27.60
2019-02-25T22:10:37.582Z,49.20
2019-02-25T22:13:09.063Z,28.87
2019-02-25T22:15:39.033Z,24.33
2019-02-25T22:18:11.406Z,22.60
2019-02-25T22:20:42.251Z,21.17
2019-02-25T22:23:11.256Z,21.07
2019-02-25T22:25:40.652Z,21.87
2019-02-25T22:28:10.105Z,21.17
2019-02-25T22:30:39.455Z,21.17
2019-02-25T22:33:23.181Z,19.30
2019-02-25T22:35:40.631Z,19.57
2019-02-25T22:38:10.941Z,18.70
2019-02-25T22:40:40.355Z,19.17
2019-02-25T22:43:10.528Z,18.87
2019-02-25T22:45:42.037Z,19.67
2019-02-25T22:48:13.571Z,18.97
2019-02-25T22:50:42.589Z,18.30
2019-02-25T22:53:12.006Z,18.20
2019-02-25T22:55:42.668Z,15.77
2019-02-25T22:58:13.350Z,16.57
2019-02-25T23:00:46.582Z,15.57
2019-02-25T23:03:17.911Z,16.57
2019-02-25T23:05:48.682Z,16.17
2019-02-25T23:08:20.737Z,18.40
2019-02-25T23:10:49.831Z,17.17
2019-02-25T23:13:22.488Z,15.77
2019-02-25T23:15:51.724Z,16.17
2019-02-25T23:18:25.087Z,15.27
2019-02-25T23:20:57.018Z,16.03
2019-02-25T23:23:26.440Z,14.40
2019-02-25T23:25:56.652Z,16.07
2019-02-25T23:28:28.599Z,16.60
2019-02-25T23:30:57.670Z,16.17
2019-02-25T23:33:27.043Z,18.20
2019-02-25T23:35:56.467Z,17.50
2019-02-25T23:38:25.859Z,16.47
2019-02-25T23:40:55.239Z,16.70
2019-02-25T23:43:24.646Z,16.33
2019-02-25T23:45:54.033Z,16.57
2019-02-25T23:48:26.409Z,16.50
2019-02-25T23:50:55.437Z,17.20
2019-02-25T23:53:26.672Z,17.27
2019-02-25T23:55:58.669Z,14.87
2019-02-25T23:58:27.880Z,16.23
